createdAt,value
2023-03-11T00:00:39.685Z,97269.19
2023-03-11T00:03:09.215Z,97278.81
2023-03-11T00:05:39.541Z,97329.25
2023-03-11T00:08:09.239Z,97344.91
2023-03-11T00:10:40.402Z,97378.00
2023-03-11T00:13:10.427Z,97383.97
2023-03-11T00:15:39.411Z,97343.09
2023-03-11T00:18:07.206Z,97301.38
2023-03-11T00:20:38.581Z,97297.94
2023-03-11T00:23:08.241Z,97288.38
2023-03-11T00:25:37.901Z,97284.91
2023-03-11T00:28:07.452Z,97278.75
2023-03-11T00:30:34.873Z,97258.72
2023-03-11T00:33:02.200Z,97237.84
2023-03-11T00:35:33.545Z,97216.97
2023-03-11T00:38:05.029Z,97235.22
2023-03-11T00:40:34.385Z,97224.81
2023-03-11T00:43:01.699Z,97203.06
2023-03-11T00:45:29.412Z,97210.06
2023-03-11T00:47:56.877Z,97199.59
2023-03-11T00:50:28.517Z,97202.34
2023-03-11T00:52:56.703Z,97171.91
2023-03-11T00:55:30.775Z,97159.75
2023-03-11T00:58:02.000Z,97153.81
2023-03-11T01:00:30.762Z,97152.97
2023-03-11T01:03:00.046Z,97182.56
2023-03-11T01:05:31.336Z,97206.81
2023-03-11T01:07:59.122Z,97168.63
2023-03-11T01:10:27.841Z,97199.97
2023-03-11T01:12:55.239Z,97200.03
2023-03-11T01:15:29.318Z,97216.56
2023-03-11T01:17:56.489Z,97229.66
2023-03-11T01:20:23.959Z,97232.28
2023-03-11T01:22:51.206Z,97221.81
2023-03-11T01:25:21.304Z,97231.41
2023-03-11T01:27:48.503Z,97213.19
2023-03-11T01:30:22.429Z,97215.91
2023-03-11T01:32:51.034Z,97198.56
2023-03-11T01:35:20.684Z,97209.88
2023-03-11T01:37:48.167Z,97235.97
2023-03-11T01:40:23.947Z,97278.44
2023-03-11T01:42:50.940Z,97265.50
2023-03-11T01:45:42.018Z,97304.56
2023-03-11T01:48:10.660Z,97315.88
2023-03-11T01:50:44.167Z,97325.41
2023-03-11T01:53:13.926Z,97319.41
2023-03-11T01:55:41.609Z,97360.19
2023-03-11T01:58:12.738Z,97373.19
2023-03-11T02:00:40.027Z,97373.19
2023-03-11T02:03:16.240Z,97355.03
2023-03-11T02:05:43.631Z,97387.97
2023-03-11T02:08:11.096Z,97356.75
2023-03-11T02:10:41.903Z,97355.88
2023-03-11T02:13:10.841Z,97348.09
2023-03-11T02:15:39.968Z,97343.78
2023-03-11T02:18:08.302Z,97364.63
2023-03-11T02:21:01.010Z,97372.41
2023-03-11T02:23:39.471Z,97368.94
2023-03-11T02:26:17.632Z,97383.69
2023-03-11T02:28:46.515Z,97375.03
2023-03-11T02:31:14.466Z,97390.66
2023-03-11T02:33:43.340Z,97421.88
2023-03-11T02:36:36.106Z,97420.13
2023-03-11T02:39:04.680Z,97424.50
2023-03-11T02:41:34.811Z,97434.03
2023-03-11T02:44:03.056Z,97414.09
2023-03-11T02:46:30.211Z,97436.63
2023-03-11T02:48:58.063Z,97453.09
2023-03-11T02:51:25.108Z,97432.31
2023-03-11T02:53:58.165Z,97459.19
2023-03-11T02:56:25.643Z,97460.94
2023-03-11T02:58:52.713Z,97465.25
2023-03-11T03:01:19.822Z,97485.22
2023-03-11T03:03:47.073Z,97483.47
2023-03-11T03:06:14.175Z,97490.41
2023-03-11T03:08:41.740Z,97489.56
2023-03-11T03:11:08.860Z,97486.94
2023-03-11T03:13:36.420Z,97493.88
2023-03-11T03:16:03.906Z,97502.56
2023-03-11T03:18:31.195Z,97509.50
2023-03-11T03:20:58.201Z,97512.09
2023-03-11T03:23:25.286Z,97525.09
2023-03-11T03:25:52.463Z,97531.16
2023-03-11T03:28:19.693Z,97526.84
2023-03-11T03:30:47.110Z,97541.56
2023-03-11T03:33:14.121Z,97565.84
2023-03-11T03:35:44.478Z,97583.19
2023-03-11T03:38:12.083Z,97573.66
2023-03-11T03:40:40.015Z,97578.88
2023-03-11T03:43:07.174Z,97586.66
2023-03-11T03:45:34.202Z,97586.66
2023-03-11T03:48:01.228Z,97580.59
2023-03-11T03:50:28.353Z,97570.16
2023-03-11T03:52:55.395Z,97577.97
2023-03-11T03:55:22.528Z,97579.69
2023-03-11T03:57:49.610Z,97594.44
2023-03-11T04:00:17.359Z,97597.91
2023-03-11T04:02:44.516Z,97600.50
2023-03-11T04:05:11.716Z,97618.72
2023-03-11T04:07:38.801Z,97618.69
2023-03-11T04:10:06.956Z,97635.16
2023-03-11T04:12:34.118Z,97651.63
2023-03-11T04:15:01.217Z,97648.13
2023-03-11T04:17:28.239Z,97659.41
2023-03-11T04:19:55.349Z,97662.06
2023-03-11T04:22:22.483Z,97660.31
2023-03-11T04:24:49.567Z,97661.16
2023-03-11T04:27:16.645Z,97671.56
2023-03-11T04:29:43.707Z,97675.91
2023-03-11T04:32:10.730Z,97666.38
2023-03-11T04:34:37.953Z,97675.88
2023-03-11T04:37:05.033Z,97671.56
2023-03-11T04:39:32.118Z,97681.13
2023-03-11T04:41:59.240Z,97685.47
2023-03-11T04:44:26.418Z,97688.91
2023-03-11T04:46:53.716Z,97693.22
2023-03-11T04:49:20.888Z,97709.72
2023-03-11T04:51:47.904Z,97727.03
2023-03-11T04:54:15.165Z,97718.41
2023-03-11T04:56:42.228Z,97707.13
2023-03-11T04:59:09.355Z,97706.22
2023-03-11T05:01:36.424Z,97703.59
2023-03-11T05:04:03.746Z,97715.78
2023-03-11T05:06:30.815Z,97707.06
2023-03-11T05:08:59.081Z,97715.72
2023-03-11T05:11:26.187Z,97702.72
2023-03-11T05:13:53.246Z,97713.97
2023-03-11T05:16:20.428Z,97720.06
2023-03-11T05:18:47.570Z,97719.16
2023-03-11T05:21:14.833Z,97742.56
2023-03-11T05:23:41.925Z,97747.75
2023-03-11T05:26:08.965Z,97753.75
2023-03-11T05:28:36.053Z,97765.03
2023-03-11T05:31:03.159Z,97780.66
2023-03-11T05:33:35.367Z,97790.16
2023-03-11T05:36:10.291Z,97780.50
2023-03-11T05:38:38.297Z,97791.78
2023-03-11T05:41:06.441Z,97807.34
2023-03-11T05:43:33.491Z,97807.41
2023-03-11T05:46:00.612Z,97804.81
2023-03-11T05:48:27.681Z,97805.66
2023-03-11T05:50:54.654Z,97815.19
2023-03-11T05:53:21.645Z,97812.59
2023-03-11T05:56:00.765Z,97817.81
2023-03-11T05:58:32.482Z,97804.75
2023-03-11T06:01:00.362Z,97815.09
2023-03-11T06:03:27.755Z,97830.75
2023-03-11T06:05:55.795Z,97825.44
2023-03-11T06:08:22.874Z,97856.59
2023-03-11T06:10:49.914Z,97861.75
2023-03-11T06:13:17.153Z,97880.00
2023-03-11T06:15:44.921Z,97885.25
2023-03-11T06:18:12.187Z,97887.03
2023-03-11T06:20:39.111Z,97894.81
2023-03-11T06:23:06.106Z,97893.94
2023-03-11T06:25:33.210Z,97920.00
2023-03-11T06:28:00.249Z,97916.53
2023-03-11T06:30:45.128Z,97933.94
2023-03-11T06:33:14.597Z,97933.03
2023-03-11T06:35:41.853Z,97948.78
2023-03-11T06:38:09.203Z,97936.63
2023-03-11T06:40:38.448Z,97946.97
2023-03-11T06:43:05.592Z,97954.03
2023-03-11T06:45:32.802Z,97965.38
2023-03-11T06:47:59.900Z,97937.69
2023-03-11T06:50:28.005Z,97948.19
2023-03-11T06:52:55.110Z,97939.53
2023-03-11T06:55:22.224Z,97924.78
2023-03-11T06:57:49.322Z,97930.09
2023-03-11T07:00:17.490Z,97928.34
2023-03-11T07:02:44.841Z,97933.53
2023-03-11T07:05:13.521Z,97941.44
2023-03-11T07:07:40.805Z,97933.63
2023-03-11T07:10:09.390Z,97931.03
2023-03-11T07:12:36.421Z,97930.25
2023-03-11T07:15:06.059Z,97918.09
2023-03-11T07:17:33.153Z,97905.94
2023-03-11T07:20:00.395Z,97892.94
2023-03-11T07:22:27.499Z,97915.53
2023-03-11T07:24:54.538Z,97925.16
2023-03-11T07:27:23.142Z,97928.66
2023-03-11T07:29:50.522Z,97912.16
2023-03-11T07:32:18.012Z,97914.78
2023-03-11T07:34:45.360Z,97923.50
2023-03-11T07:37:12.493Z,97917.47
2023-03-11T07:39:40.086Z,97914.88
2023-03-11T07:42:07.545Z,97920.09
2023-03-11T07:44:34.872Z,97925.34
2023-03-11T07:47:06.455Z,97942.72
2023-03-11T07:49:33.835Z,97938.41
2023-03-11T07:52:00.966Z,97910.59
2023-03-11T07:54:28.028Z,97886.31
2023-03-11T07:56:55.095Z,97885.44
2023-03-11T07:59:22.481Z,97894.13
2023-03-11T08:01:50.736Z,97882.00
2023-03-11T08:04:18.012Z,97872.44
2023-03-11T08:06:47.659Z,97875.91
2023-03-11T08:09:15.320Z,97866.38
2023-03-11T08:11:42.851Z,97887.22
2023-03-11T08:14:10.006Z,97886.38
2023-03-11T08:16:39.924Z,97853.34
2023-03-11T08:19:06.960Z,97847.25
2023-03-11T08:21:34.046Z,97815.09
2023-03-11T08:24:03.663Z,97759.47
2023-03-11T08:26:32.564Z,97794.22
2023-03-11T08:28:59.720Z,97678.59
2023-03-11T08:31:31.547Z,97655.97
2023-03-11T08:34:02.922Z,97688.94
2023-03-11T08:36:31.201Z,97669.88
2023-03-11T08:38:58.785Z,97697.69
2023-03-11T08:41:26.593Z,97708.09
2023-03-11T08:43:53.685Z,97694.13
2023-03-11T08:46:39.042Z,97611.38
2023-03-11T08:49:07.677Z,97523.56
2023-03-11T08:51:35.950Z,97532.19
2023-03-11T08:54:04.321Z,97508.69
2023-03-11T08:56:31.648Z,97534.66
2023-03-11T08:58:58.817Z,97451.84
2023-03-11T09:01:26.004Z,97354.38
2023-03-11T09:03:56.966Z,97383.94
2023-03-11T09:06:24.901Z,97424.94
2023-03-11T09:08:52.272Z,97443.03
2023-03-11T09:11:19.778Z,97344.50
2023-03-11T09:13:47.146Z,97329.63
2023-03-11T09:16:18.535Z,97214.84
2023-03-11T09:18:46.740Z,97261.69
2023-03-11T09:21:15.371Z,97271.25
2023-03-11T09:23:44.512Z,97247.66
2023-03-11T09:26:12.548Z,97211.75
2023-03-11T09:28:41.890Z,97208.38
2023-03-11T09:31:09.877Z,97273.53
2023-03-11T09:33:40.484Z,97163.81
2023-03-11T09:36:17.170Z,97058.50
2023-03-11T09:38:46.103Z,96983.59
2023-03-11T09:41:57.074Z,96948.41
2023-03-11T09:44:42.649Z,96998.88
2023-03-11T09:48:01.193Z,96946.25
2023-03-11T09:50:38.886Z,96956.56
2023-03-11T09:53:30.429Z,97043.34
2023-03-11T09:56:00.321Z,96921.56
2023-03-11T09:58:53.581Z,96930.44
2023-03-11T10:01:35.128Z,97017.34
2023-03-11T10:04:27.225Z,96968.47
2023-03-11T10:06:54.845Z,96988.00
2023-03-11T10:09:41.446Z,96807.63
2023-03-11T10:12:30.840Z,96889.41
2023-03-11T10:15:31.527Z,96993.47
2023-03-11T10:18:40.866Z,97046.47
2023-03-11T10:21:53.385Z,97028.03
2023-03-11T10:24:55.529Z,96920.28
2023-03-11T10:27:37.609Z,97082.44
2023-03-11T10:30:24.859Z,97181.13
2023-03-11T10:33:20.562Z,97070.06
2023-03-11T10:35:54.288Z,97002.97
2023-03-11T10:38:27.065Z,97034.81
2023-03-11T10:41:03.544Z,97046.25
2023-03-11T10:43:45.666Z,97165.22
2023-03-11T10:46:27.113Z,97276.56
2023-03-11T10:48:54.487Z,97190.22
2023-03-11T10:51:34.687Z,96951.28
2023-03-11T10:54:04.034Z,96983.31
2023-03-11T10:56:39.496Z,97072.09
2023-03-11T10:59:50.628Z,97234.75
2023-03-11T11:02:39.167Z,97206.66
2023-03-11T11:05:18.227Z,97173.53
2023-03-11T11:07:47.587Z,97185.16
2023-03-11T11:10:16.854Z,97135.06
2023-03-11T11:13:14.097Z,97045.56
2023-03-11T11:15:52.194Z,97078.31
2023-03-11T11:18:24.998Z,96929.00
2023-03-11T11:21:05.814Z,97001.50
2023-03-11T11:23:41.043Z,97153.22
2023-03-11T11:26:23.020Z,96925.13
2023-03-11T11:29:09.202Z,97136.34
2023-03-11T11:31:45.369Z,97230.97
2023-03-11T11:34:35.327Z,97209.16
2023-03-11T11:37:07.683Z,97044.63
2023-03-11T11:39:57.400Z,97197.56
2023-03-11T11:42:28.916Z,97066.56
2023-03-11T11:45:29.648Z,97012.59
2023-03-11T11:48:09.124Z,97171.03
2023-03-11T11:50:57.532Z,96956.22
2023-03-11T11:53:57.269Z,97043.00
2023-03-11T11:56:31.868Z,96854.69
2023-03-11T11:59:01.363Z,96883.16
2023-03-11T12:02:13.663Z,96719.75
2023-03-11T12:04:54.037Z,96831.66
2023-03-11T12:07:39.890Z,96865.63
2023-03-11T12:10:37.739Z,96887.00
2023-03-11T12:13:14.971Z,96975.34
2023-03-11T12:15:52.985Z,97051.00
2023-03-11T12:18:28.784Z,97080.25
2023-03-11T12:20:57.107Z,96704.59
2023-03-11T12:23:55.109Z,96990.38
2023-03-11T12:26:29.126Z,97054.69
2023-03-11T12:29:08.969Z,97084.97
2023-03-11T12:31:42.049Z,97011.34
2023-03-11T12:34:20.157Z,96920.72
2023-03-11T12:36:58.958Z,97006.94
2023-03-11T12:39:35.814Z,96645.03
2023-03-11T12:42:19.793Z,96945.47
2023-03-11T12:44:53.033Z,96809.94
2023-03-11T12:47:26.325Z,96953.50
2023-03-11T12:50:37.722Z,96892.53
2023-03-11T12:53:06.941Z,96988.16
2023-03-11T12:55:36.475Z,97008.94
2023-03-11T12:58:56.194Z,97141.69
2023-03-11T13:02:02.850Z,96821.66
2023-03-11T13:04:56.431Z,96717.09
2023-03-11T13:07:26.432Z,96894.44
2023-03-11T13:10:18.915Z,96848.63
2023-03-11T13:12:49.566Z,96862.59
2023-03-11T13:15:20.453Z,97051.75
2023-03-11T13:18:18.865Z,96906.22
2023-03-11T13:20:50.237Z,96845.84
2023-03-11T13:23:32.105Z,96729.22
2023-03-11T13:26:17.071Z,96569.44
2023-03-11T13:29:19.209Z,96591.44
2023-03-11T13:32:23.174Z,96715.25
2023-03-11T13:35:22.298Z,96775.84
2023-03-11T13:38:45.917Z,96657.19
2023-03-11T13:41:32.087Z,96708.84
2023-03-11T13:44:26.970Z,96569.13
2023-03-11T13:47:04.580Z,96552.63
2023-03-11T13:49:42.996Z,96711.31
2023-03-11T13:52:16.958Z,96862.06
2023-03-11T13:54:58.375Z,96772.09
2023-03-11T13:57:31.962Z,96779.06
2023-03-11T14:00:29.868Z,96329.22
2023-03-11T14:03:02.129Z,96863.06
2023-03-11T14:05:36.188Z,96581.75
2023-03-11T14:08:19.182Z,96607.09
2023-03-11T14:11:17.491Z,96581.91
2023-03-11T14:13:50.198Z,96695.50
2023-03-11T14:16:44.137Z,96751.53
2023-03-11T14:19:18.994Z,96708.69
2023-03-11T14:21:49.219Z,96691.75
2023-03-11T14:24:23.403Z,96708.06
2023-03-11T14:26:55.906Z,96728.53
2023-03-11T14:29:43.430Z,96741.75
2023-03-11T14:32:37.598Z,96596.91
2023-03-11T14:35:20.595Z,96657.56
2023-03-11T14:37:47.753Z,96632.63
2023-03-11T14:40:30.018Z,96691.09
2023-03-11T14:43:02.488Z,96616.88
2023-03-11T14:45:33.631Z,96699.47
2023-03-11T14:48:18.185Z,96705.97
2023-03-11T14:50:49.566Z,96600.78
2023-03-11T14:53:41.530Z,96460.22
2023-03-11T14:56:19.181Z,96561.50
2023-03-11T14:59:23.469Z,96479.84
2023-03-11T15:01:51.557Z,96531.22
2023-03-11T15:04:33.905Z,96600.88
2023-03-11T15:07:02.217Z,96633.63
2023-03-11T15:09:30.457Z,96666.91
2023-03-11T15:12:00.854Z,96578.47
2023-03-11T15:14:31.979Z,96671.44
2023-03-11T15:17:34.722Z,96647.09
2023-03-11T15:20:07.552Z,96711.69
2023-03-11T15:22:41.149Z,96730.47
2023-03-11T15:25:19.520Z,96791.84
2023-03-11T15:27:47.179Z,96752.06
2023-03-11T15:30:28.125Z,96774.22
2023-03-11T15:32:56.270Z,96766.75
2023-03-11T15:35:31.067Z,96746.94
2023-03-11T15:38:21.657Z,96773.09
2023-03-11T15:41:01.096Z,96864.00
2023-03-11T15:43:46.201Z,96732.78
2023-03-11T15:46:13.268Z,96772.97
2023-03-11T15:48:40.288Z,96812.97
2023-03-11T15:51:17.357Z,96781.94
2023-03-11T15:53:44.325Z,96674.88
2023-03-11T15:56:21.394Z,96648.41
2023-03-11T15:58:48.554Z,96665.75
2023-03-11T16:01:15.527Z,96708.72
2023-03-11T16:03:42.659Z,96663.00
2023-03-11T16:06:09.696Z,96784.56
2023-03-11T16:08:36.779Z,96708.72
2023-03-11T16:11:03.834Z,96709.31
2023-03-11T16:13:30.870Z,96777.25
2023-03-11T16:15:57.994Z,96704.38
2023-03-11T16:18:25.103Z,96798.19
2023-03-11T16:20:54.397Z,96765.56
2023-03-11T16:23:44.810Z,96833.44
2023-03-11T16:26:17.558Z,96714.31
2023-03-11T16:28:44.540Z,96716.94
2023-03-11T16:31:11.666Z,96670.88
2023-03-11T16:33:38.786Z,96582.06
2023-03-11T16:36:06.536Z,96671.56
2023-03-11T16:38:47.594Z,96657.47
2023-03-11T16:41:15.915Z,96674.41
2023-03-11T16:43:43.580Z,96643.41
2023-03-11T16:46:10.742Z,96598.28
2023-03-11T16:48:37.749Z,96656.88
2023-03-11T16:51:05.074Z,96664.34
2023-03-11T16:53:32.113Z,96639.69
2023-03-11T16:55:59.869Z,96663.25
2023-03-11T16:58:27.067Z,96710.72
2023-03-11T17:00:54.122Z,96780.53
2023-03-11T17:03:21.746Z,96807.84
2023-03-11T17:05:49.247Z,96816.16
2023-03-11T17:08:18.292Z,96853.09
2023-03-11T17:10:46.679Z,96882.00
2023-03-11T17:13:16.511Z,96924.84
2023-03-11T17:15:45.867Z,96970.56
2023-03-11T17:18:13.744Z,97012.41
2023-03-11T17:20:43.682Z,97063.00
2023-03-11T17:23:10.766Z,97089.56
2023-03-11T17:25:41.703Z,97107.19
2023-03-11T17:28:09.432Z,97142.91
2023-03-11T17:30:37.767Z,97163.03
2023-03-11T17:33:05.259Z,97173.66
2023-03-11T17:35:32.326Z,97198.19
2023-03-11T17:37:59.338Z,97210.41
2023-03-11T17:40:27.165Z,97230.38
2023-03-11T17:42:54.304Z,97256.47
2023-03-11T17:45:21.231Z,97261.75
2023-03-11T17:47:48.420Z,97250.50
2023-03-11T17:50:15.682Z,97250.69
2023-03-11T17:52:43.532Z,97272.31
2023-03-11T17:55:17.395Z,97283.69
2023-03-11T17:57:45.807Z,97305.41
2023-03-11T18:00:15.197Z,97271.75
2023-03-11T18:02:42.671Z,97289.06
2023-03-11T18:05:10.342Z,97289.41
2023-03-11T18:07:40.972Z,97287.78
2023-03-11T18:10:10.103Z,97337.47
2023-03-11T18:12:38.249Z,97340.97
2023-03-11T18:15:08.379Z,97368.88
2023-03-11T18:17:35.787Z,97390.72
2023-03-11T18:20:03.602Z,97405.50
2023-03-11T18:22:30.681Z,97425.56
2023-03-11T18:24:57.988Z,97415.28
2023-03-11T18:27:25.220Z,97451.81
2023-03-11T18:29:52.175Z,97495.34
2023-03-11T18:32:20.862Z,97503.09
2023-03-11T18:34:51.265Z,97467.41
2023-03-11T18:37:18.829Z,97437.09
2023-03-11T18:39:46.178Z,97480.53
2023-03-11T18:42:14.432Z,97495.41
2023-03-11T18:44:42.515Z,97551.84
2023-03-11T18:47:09.631Z,97597.94
2023-03-11T18:49:37.964Z,97638.78
2023-03-11T18:52:05.589Z,97674.38
2023-03-11T18:54:32.933Z,97655.28
2023-03-11T18:56:59.975Z,97643.13
2023-03-11T18:59:27.912Z,97643.13
2023-03-11T19:01:55.384Z,97611.00
2023-03-11T19:04:22.884Z,97621.41
2023-03-11T19:06:50.329Z,97666.56
2023-03-11T19:09:21.255Z,97709.00
2023-03-11T19:11:48.322Z,97738.53
2023-03-11T19:14:15.833Z,97716.03
2023-03-11T19:16:43.353Z,97719.53
2023-03-11T19:19:11.903Z,97736.78
2023-03-11T19:21:39.443Z,97769.75
2023-03-11T19:24:06.856Z,97792.31
2023-03-11T19:26:44.809Z,97780.19
2023-03-11T19:29:14.366Z,97800.81
2023-03-11T19:31:43.760Z,97825.03
2023-03-11T19:34:11.066Z,97858.13
2023-03-11T19:36:39.190Z,97866.72
2023-03-11T19:39:06.338Z,97917.78
2023-03-11T19:41:34.433Z,97913.53
2023-03-11T19:44:04.366Z,97918.72
2023-03-11T19:46:34.814Z,97935.16
2023-03-11T19:49:03.085Z,97913.47
2023-03-11T19:51:42.465Z,97899.47
2023-03-11T19:54:16.932Z,97926.97
2023-03-11T19:56:44.140Z,97951.16
2023-03-11T19:59:11.602Z,98009.06
2023-03-11T20:01:38.676Z,98046.22
2023-03-11T20:04:06.366Z,98072.00
2023-03-11T20:06:33.787Z,98096.25
2023-03-11T20:09:01.032Z,98122.38
2023-03-11T20:11:28.203Z,98144.00
2023-03-11T20:13:56.539Z,98146.78
2023-03-11T20:16:23.865Z,98138.97
2023-03-11T20:18:51.630Z,98134.81
2023-03-11T20:21:20.444Z,98135.66
2023-03-11T20:23:49.138Z,98134.63
2023-03-11T20:26:19.401Z,98156.09
2023-03-11T20:28:47.156Z,98168.41
2023-03-11T20:31:23.914Z,98160.59
2023-03-11T20:33:52.080Z,98151.13
2023-03-11T20:36:25.836Z,98141.44
2023-03-11T20:38:55.111Z,98159.50
2023-03-11T20:41:25.253Z,98162.84
2023-03-11T20:43:57.076Z,98180.16
2023-03-11T20:46:24.520Z,98177.50
2023-03-11T20:48:51.969Z,98188.06
2023-03-11T20:51:20.928Z,98194.72
2023-03-11T20:53:49.191Z,98210.22
2023-03-11T20:56:21.076Z,98218.94
2023-03-11T20:58:51.149Z,98216.94
2023-03-11T21:01:23.189Z,98227.50
2023-03-11T21:03:53.598Z,98224.00
2023-03-11T21:06:25.920Z,98243.91
2023-03-11T21:08:58.414Z,98228.94
2023-03-11T21:11:27.105Z,98233.25
2023-03-11T21:13:55.567Z,98234.94
2023-03-11T21:16:23.517Z,98251.47
2023-03-11T21:18:50.759Z,98255.72
2023-03-11T21:21:19.526Z,98260.97
2023-03-11T21:23:47.966Z,98267.72
2023-03-11T21:26:17.303Z,98274.69
2023-03-11T21:28:47.172Z,98299.06
2023-03-11T21:31:23.201Z,98295.69
2023-03-11T21:33:54.858Z,98292.97
2023-03-11T21:36:22.893Z,98296.50
2023-03-11T21:38:51.195Z,98313.03
2023-03-11T21:41:26.285Z,98303.31
2023-03-11T21:43:56.165Z,98308.97
2023-03-11T21:46:31.181Z,98325.44
2023-03-11T21:49:00.698Z,98329.69
2023-03-11T21:51:28.589Z,98347.19
2023-03-11T21:53:56.915Z,98348.03
2023-03-11T21:56:24.175Z,98361.88
2023-03-11T21:58:54.955Z,98361.81
2023-03-11T22:01:22.424Z,98367.72
2023-03-11T22:03:49.599Z,98394.34
2023-03-11T22:06:16.724Z,98399.84
2023-03-11T22:08:46.118Z,98419.13
2023-03-11T22:11:19.518Z,98425.84
2023-03-11T22:13:49.229Z,98423.38
2023-03-11T22:16:17.421Z,98431.41
2023-03-11T22:18:47.773Z,98455.81
2023-03-11T22:21:16.381Z,98446.28
2023-03-11T22:23:46.191Z,98442.91
2023-03-11T22:26:14.751Z,98446.47
2023-03-11T22:28:41.747Z,98440.19
2023-03-11T22:31:15.053Z,98438.50
2023-03-11T22:33:42.667Z,98440.28
2023-03-11T22:36:10.109Z,98440.03
2023-03-11T22:38:39.409Z,98437.63
2023-03-11T22:41:08.552Z,98445.44
2023-03-11T22:43:37.323Z,98450.38
2023-03-11T22:46:06.082Z,98461.44
2023-03-11T22:48:35.545Z,98460.50
2023-03-11T22:51:03.480Z,98464.09
2023-03-11T22:53:30.651Z,98478.09
2023-03-11T22:55:57.853Z,98478.84
2023-03-11T22:58:25.003Z,98486.56
2023-03-11T23:00:52.022Z,98495.16
2023-03-11T23:03:19.116Z,98494.06
2023-03-11T23:05:46.943Z,98498.16
2023-03-11T23:08:16.649Z,98510.81
2023-03-11T23:10:46.274Z,98521.25
2023-03-11T23:13:14.090Z,98533.38
2023-03-11T23:15:43.955Z,98538.41
2023-03-11T23:18:12.716Z,98537.50
2023-03-11T23:20:41.717Z,98548.66
2023-03-11T23:23:10.743Z,98561.03
2023-03-11T23:25:39.690Z,98560.22
2023-03-11T23:28:07.656Z,98569.97
2023-03-11T23:30:34.822Z,98569.00
2023-03-11T23:33:03.174Z,98561.03
2023-03-11T23:35:31.735Z,98568.69
2023-03-11T23:37:59.446Z,98564.19
2023-03-11T23:40:26.837Z,98574.59
2023-03-11T23:42:54.094Z,98592.31
2023-03-11T23:45:21.131Z,98600.97
2023-03-11T23:47:48.265Z,98604.31
2023-03-11T23:50:15.907Z,98614.44
2023-03-11T23:52:43.436Z,98622.28
2023-03-11T23:55:11.358Z,98623.56
2023-03-11T23:57:39.446Z,98619.09
